sensor_id;sensor_type;location;lat;lon;timestamp;temperature;humidity
35633;DHT22;21754;48.216;-1.628;2022-08-07T00:00:20;20.20;88.70
35633;DHT22;21754;48.216;-1.628;2022-08-07T00:02:45;20.20;87.50
35633;DHT22;21754;48.216;-1.628;2022-08-07T00:05:11;20.20;88.50
35633;DHT22;21754;48.216;-1.628;2022-08-07T00:07:37;20.10;89.00
35633;DHT22;21754;48.216;-1.628;2022-08-07T00:10:04;20.00;88.30
35633;DHT22;21754;48.216;-1.628;2022-08-07T00:12:29;20.00;89.00
35633;DHT22;21754;48.216;-1.628;2022-08-07T00:14:56;19.90;89.90
35633;DHT22;21754;48.216;-1.628;2022-08-07T00:17:22;19.90;89.60
35633;DHT22;21754;48.216;-1.628;2022-08-07T00:19:48;19.80;90.00
35633;DHT22;21754;48.216;-1.628;2022-08-07T00:22:14;19.80;89.80
35633;DHT22;21754;48.216;-1.628;2022-08-07T00:24:40;19.80;90.00
35633;DHT22;21754;48.216;-1.628;2022-08-07T00:27:06;19.70;90.20
35633;DHT22;21754;48.216;-1.628;2022-08-07T00:29:32;19.70;90.30
35633;DHT22;21754;48.216;-1.628;2022-08-07T00:31:57;19.70;90.20
35633;DHT22;21754;48.216;-1.628;2022-08-07T00:34:27;19.60;90.00
35633;DHT22;21754;48.216;-1.628;2022-08-07T00:36:53;19.60;90.40
35633;DHT22;21754;48.216;-1.628;2022-08-07T00:39:19;19.60;91.10
35633;DHT22;21754;48.216;-1.628;2022-08-07T00:41:53;19.60;91.00
35633;DHT22;21754;48.216;-1.628;2022-08-07T00:44:19;19.60;91.10
35633;DHT22;21754;48.216;-1.628;2022-08-07T00:46:45;19.60;90.90
35633;DHT22;21754;48.216;-1.628;2022-08-07T00:49:10;19.60;91.40
35633;DHT22;21754;48.216;-1.628;2022-08-07T00:51:36;19.70;91.30
35633;DHT22;21754;48.216;-1.628;2022-08-07T00:54:02;19.70;91.30
35633;DHT22;21754;48.216;-1.628;2022-08-07T00:56:28;19.60;90.90
35633;DHT22;21754;48.216;-1.628;2022-08-07T00:58:54;19.50;90.90
35633;DHT22;21754;48.216;-1.628;2022-08-07T01:01:20;19.40;91.40
35633;DHT22;21754;48.216;-1.628;2022-08-07T01:03:47;19.30;91.90
35633;DHT22;21754;48.216;-1.628;2022-08-07T01:06:14;19.30;92.80
35633;DHT22;21754;48.216;-1.628;2022-08-07T01:08:41;19.20;92.30
35633;DHT22;21754;48.216;-1.628;2022-08-07T01:11:07;19.10;93.90
35633;DHT22;21754;48.216;-1.628;2022-08-07T01:13:33;19.20;93.00
35633;DHT22;21754;48.216;-1.628;2022-08-07T01:16:00;19.20;93.90
35633;DHT22;21754;48.216;-1.628;2022-08-07T01:18:26;19.10;93.90
35633;DHT22;21754;48.216;-1.628;2022-08-07T01:21:15;19.00;92.80
35633;DHT22;21754;48.216;-1.628;2022-08-07T01:23:44;18.90;93.60
35633;DHT22;21754;48.216;-1.628;2022-08-07T01:26:11;18.90;94.60
35633;DHT22;21754;48.216;-1.628;2022-08-07T01:28:47;18.90;94.60
35633;DHT22;21754;48.216;-1.628;2022-08-07T01:31:15;18.80;93.70
35633;DHT22;21754;48.216;-1.628;2022-08-07T01:33:41;18.70;93.90
35633;DHT22;21754;48.216;-1.628;2022-08-07T01:36:07;18.70;93.90
35633;DHT22;21754;48.216;-1.628;2022-08-07T01:38:35;18.60;94.50
35633;DHT22;21754;48.216;-1.628;2022-08-07T01:41:03;18.50;94.40
35633;DHT22;21754;48.216;-1.628;2022-08-07T01:43:30;18.40;94.50
35633;DHT22;21754;48.216;-1.628;2022-08-07T01:45:57;18.30;94.70
35633;DHT22;21754;48.216;-1.628;2022-08-07T01:48:24;18.30;94.70
35633;DHT22;21754;48.216;-1.628;2022-08-07T01:50:58;18.30;95.40
35633;DHT22;21754;48.216;-1.628;2022-08-07T01:53:26;18.30;94.60
35633;DHT22;21754;48.216;-1.628;2022-08-07T01:55:55;18.30;94.90
35633;DHT22;21754;48.216;-1.628;2022-08-07T01:58:28;18.30;95.40
35633;DHT22;21754;48.216;-1.628;2022-08-07T02:01:00;18.30;95.00
35633;DHT22;21754;48.216;-1.628;2022-08-07T02:03:29;18.20;94.90
35633;DHT22;21754;48.216;-1.628;2022-08-07T02:06:06;18.20;95.10
35633;DHT22;21754;48.216;-1.628;2022-08-07T02:08:35;18.10;96.40
35633;DHT22;21754;48.216;-1.628;2022-08-07T02:11:07;18.20;96.10
35633;DHT22;21754;48.216;-1.628;2022-08-07T02:13:33;18.10;96.40
35633;DHT22;21754;48.216;-1.628;2022-08-07T02:16:02;18.00;96.10
35633;DHT22;21754;48.216;-1.628;2022-08-07T02:18:30;17.80;96.60
35633;DHT22;21754;48.216;-1.628;2022-08-07T02:20:59;17.70;96.80
35633;DHT22;21754;48.216;-1.628;2022-08-07T02:23:26;17.60;97.20
35633;DHT22;21754;48.216;-1.628;2022-08-07T02:25:54;17.50;97.20
35633;DHT22;21754;48.216;-1.628;2022-08-07T02:28:21;17.50;97.30
35633;DHT22;21754;48.216;-1.628;2022-08-07T02:30:47;17.40;97.40
35633;DHT22;21754;48.216;-1.628;2022-08-07T02:33:15;17.40;97.50
35633;DHT22;21754;48.216;-1.628;2022-08-07T02:35:43;17.40;97.50
35633;DHT22;21754;48.216;-1.628;2022-08-07T02:38:10;17.30;97.60
35633;DHT22;21754;48.216;-1.628;2022-08-07T02:40:37;17.30;98.20
35633;DHT22;21754;48.216;-1.628;2022-08-07T02:43:04;17.20;97.80
35633;DHT22;21754;48.216;-1.628;2022-08-07T02:45:32;17.20;98.00
35633;DHT22;21754;48.216;-1.628;2022-08-07T02:48:01;17.10;98.30
35633;DHT22;21754;48.216;-1.628;2022-08-07T02:50:27;17.10;98.30
35633;DHT22;21754;48.216;-1.628;2022-08-07T02:52:58;17.10;98.60
35633;DHT22;21754;48.216;-1.628;2022-08-07T02:55:28;17.10;98.70
35633;DHT22;21754;48.216;-1.628;2022-08-07T02:57:57;17.10;99.00
35633;DHT22;21754;48.216;-1.628;2022-08-07T03:00:24;17.00;98.60
35633;DHT22;21754;48.216;-1.628;2022-08-07T03:02:51;16.90;99.10
35633;DHT22;21754;48.216;-1.628;2022-08-07T03:05:17;16.90;99.40
35633;DHT22;21754;48.216;-1.628;2022-08-07T03:07:44;16.80;99.80
35633;DHT22;21754;48.216;-1.628;2022-08-07T03:10:11;16.70;99.90
35633;DHT22;21754;48.216;-1.628;2022-08-07T03:12:38;16.60;99.90
35633;DHT22;21754;48.216;-1.628;2022-08-07T03:15:05;16.50;99.90
35633;DHT22;21754;48.216;-1.628;2022-08-07T03:17:31;16.50;99.90
35633;DHT22;21754;48.216;-1.628;2022-08-07T03:19:57;16.50;99.90
35633;DHT22;21754;48.216;-1.628;2022-08-07T03:22:24;16.60;99.90
35633;DHT22;21754;48.216;-1.628;2022-08-07T03:24:51;16.60;99.90
35633;DHT22;21754;48.216;-1.628;2022-08-07T03:27:18;16.60;99.90
35633;DHT22;21754;48.216;-1.628;2022-08-07T03:29:47;16.60;99.90
35633;DHT22;21754;48.216;-1.628;2022-08-07T03:32:15;16.60;99.90
35633;DHT22;21754;48.216;-1.628;2022-08-07T03:34:44;16.70;99.90
35633;DHT22;21754;48.216;-1.628;2022-08-07T03:37:11;16.80;99.90
35633;DHT22;21754;48.216;-1.628;2022-08-07T03:39:37;16.80;99.90
35633;DHT22;21754;48.216;-1.628;2022-08-07T03:42:04;16.80;99.90
35633;DHT22;21754;48.216;-1.628;2022-08-07T03:44:35;16.80;99.90
35633;DHT22;21754;48.216;-1.628;2022-08-07T03:47:01;16.70;99.90
35633;DHT22;21754;48.216;-1.628;2022-08-07T03:49:27;16.60;99.90
35633;DHT22;21754;48.216;-1.628;2022-08-07T03:51:54;16.50;99.90
35633;DHT22;21754;48.216;-1.628;2022-08-07T03:54:21;16.50;99.90
35633;DHT22;21754;48.216;-1.628;2022-08-07T03:56:47;16.50;99.90
35633;DHT22;21754;48.216;-1.628;2022-08-07T03:59:14;16.50;99.90
35633;DHT22;21754;48.216;-1.628;2022-08-07T04:01:41;16.50;99.90
35633;DHT22;21754;48.216;-1.628;2022-08-07T04:04:07;16.50;99.90
35633;DHT22;21754;48.216;-1.628;2022-08-07T04:06:35;16.60;99.90
35633;DHT22;21754;48.216;-1.628;2022-08-07T04:09:02;16.60;99.90
35633;DHT22;21754;48.216;-1.628;2022-08-07T04:11:27;16.70;99.90
35633;DHT22;21754;48.216;-1.628;2022-08-07T04:13:55;16.60;99.90
35633;DHT22;21754;48.216;-1.628;2022-08-07T04:16:21;16.60;99.90
35633;DHT22;21754;48.216;-1.628;2022-08-07T04:18:47;16.70;99.90
35633;DHT22;21754;48.216;-1.628;2022-08-07T04:21:13;16.70;99.90
35633;DHT22;21754;48.216;-1.628;2022-08-07T04:23:39;16.80;99.90
35633;DHT22;21754;48.216;-1.628;2022-08-07T04:26:06;16.80;99.90
35633;DHT22;21754;48.216;-1.628;2022-08-07T04:28:32;16.80;99.90
35633;DHT22;21754;48.216;-1.628;2022-08-07T04:30:57;16.80;99.90
35633;DHT22;21754;48.216;-1.628;2022-08-07T04:33:24;16.90;99.90
35633;DHT22;21754;48.216;-1.628;2022-08-07T04:35:51;16.80;99.90
35633;DHT22;21754;48.216;-1.628;2022-08-07T04:38:17;16.80;99.90
35633;DHT22;21754;48.216;-1.628;2022-08-07T04:40:44;16.80;99.90
35633;DHT22;21754;48.216;-1.628;2022-08-07T04:43:10;16.90;99.90
35633;DHT22;21754;48.216;-1.628;2022-08-07T04:45:41;17.10;99.90
35633;DHT22;21754;48.216;-1.628;2022-08-07T04:51:02;16.50;99.90
35633;DHT22;21754;48.216;-1.628;2022-08-07T04:56:33;16.30;99.90
35633;DHT22;21754;48.216;-1.628;2022-08-07T04:59:11;16.40;99.90
35633;DHT22;21754;48.216;-1.628;2022-08-07T05:01:48;16.50;99.90
35633;DHT22;21754;48.216;-1.628;2022-08-07T05:04:21;16.60;99.90
35633;DHT22;21754;48.216;-1.628;2022-08-07T05:07:06;16.60;99.90
35633;DHT22;21754;48.216;-1.628;2022-08-07T05:09:48;16.70;99.90
35633;DHT22;21754;48.216;-1.628;2022-08-07T05:12:22;16.70;99.90
35633;DHT22;21754;48.216;-1.628;2022-08-07T05:14:51;16.70;99.90
35633;DHT22;21754;48.216;-1.628;2022-08-07T05:17:19;16.70;99.90
35633;DHT22;21754;48.216;-1.628;2022-08-07T05:19:50;16.60;99.90
35633;DHT22;21754;48.216;-1.628;2022-08-07T05:22:19;16.60;99.90
35633;DHT22;21754;48.216;-1.628;2022-08-07T05:24:47;16.60;99.90
35633;DHT22;21754;48.216;-1.628;2022-08-07T05:27:14;16.70;99.90
35633;DHT22;21754;48.216;-1.628;2022-08-07T05:29:43;16.70;99.90
35633;DHT22;21754;48.216;-1.628;2022-08-07T05:32:10;16.80;99.90
35633;DHT22;21754;48.216;-1.628;2022-08-07T05:34:39;16.80;99.90
35633;DHT22;21754;48.216;-1.628;2022-08-07T05:37:06;16.90;99.90
35633;DHT22;21754;48.216;-1.628;2022-08-07T05:39:34;16.80;99.90
35633;DHT22;21754;48.216;-1.628;2022-08-07T05:42:00;16.80;99.90
35633;DHT22;21754;48.216;-1.628;2022-08-07T05:44:27;16.80;99.90
35633;DHT22;21754;48.216;-1.628;2022-08-07T05:46:55;16.80;99.90
35633;DHT22;21754;48.216;-1.628;2022-08-07T05:49:23;16.80;99.90
35633;DHT22;21754;48.216;-1.628;2022-08-07T05:51:49;16.90;99.90
35633;DHT22;21754;48.216;-1.628;2022-08-07T05:54:15;16.90;99.90
35633;DHT22;21754;48.216;-1.628;2022-08-07T05:56:42;16.90;99.90
35633;DHT22;21754;48.216;-1.628;2022-08-07T05:59:15;16.90;99.90
35633;DHT22;21754;48.216;-1.628;2022-08-07T06:01:41;16.90;99.90
35633;DHT22;21754;48.216;-1.628;2022-08-07T06:04:09;16.90;99.90
35633;DHT22;21754;48.216;-1.628;2022-08-07T06:06:35;16.90;99.90
35633;DHT22;21754;48.216;-1.628;2022-08-07T06:09:02;16.90;99.90
35633;DHT22;21754;48.216;-1.628;2022-08-07T06:11:28;17.00;99.90
35633;DHT22;21754;48.216;-1.628;2022-08-07T06:13:54;17.10;99.90
35633;DHT22;21754;48.216;-1.628;2022-08-07T06:16:22;17.20;99.90
35633;DHT22;21754;48.216;-1.628;2022-08-07T06:18:52;17.20;99.90
35633;DHT22;21754;48.216;-1.628;2022-08-07T06:21:18;17.40;99.90
35633;DHT22;21754;48.216;-1.628;2022-08-07T06:23:44;17.40;99.90
35633;DHT22;21754;48.216;-1.628;2022-08-07T06:26:13;17.60;99.90
35633;DHT22;21754;48.216;-1.628;2022-08-07T06:28:53;17.70;99.90
35633;DHT22;21754;48.216;-1.628;2022-08-07T06:31:20;17.80;99.90
35633;DHT22;21754;48.216;-1.628;2022-08-07T06:33:45;17.90;99.90
35633;DHT22;21754;48.216;-1.628;2022-08-07T06:36:11;17.90;99.90
35633;DHT22;21754;48.216;-1.628;2022-08-07T06:38:38;18.00;99.90
35633;DHT22;21754;48.216;-1.628;2022-08-07T06:41:11;18.10;99.90
35633;DHT22;21754;48.216;-1.628;2022-08-07T06:43:41;18.20;99.90
35633;DHT22;21754;48.216;-1.628;2022-08-07T06:46:08;18.30;99.90
35633;DHT22;21754;48.216;-1.628;2022-08-07T06:48:34;18.30;99.90
35633;DHT22;21754;48.216;-1.628;2022-08-07T06:51:03;18.40;99.90
35633;DHT22;21754;48.216;-1.628;2022-08-07T06:53:30;18.60;99.90
35633;DHT22;21754;48.216;-1.628;2022-08-07T06:55:58;18.70;99.90
35633;DHT22;21754;48.216;-1.628;2022-08-07T06:58:26;18.80;99.90
35633;DHT22;21754;48.216;-1.628;2022-08-07T07:00:52;18.90;99.90
35633;DHT22;21754;48.216;-1.628;2022-08-07T07:03:19;19.10;99.90
35633;DHT22;21754;48.216;-1.628;2022-08-07T07:05:45;19.20;99.90
35633;DHT22;21754;48.216;-1.628;2022-08-07T07:08:11;19.20;99.90
35633;DHT22;21754;48.216;-1.628;2022-08-07T07:10:37;19.30;99.90
35633;DHT22;21754;48.216;-1.628;2022-08-07T07:15:45;19.60;99.90
35633;DHT22;21754;48.216;-1.628;2022-08-07T07:21:03;19.90;99.90
35633;DHT22;21754;48.216;-1.628;2022-08-07T07:23:31;20.00;99.90
35633;DHT22;21754;48.216;-1.628;2022-08-07T07:26:01;20.10;99.90
35633;DHT22;21754;48.216;-1.628;2022-08-07T07:28:32;20.20;99.90
35633;DHT22;21754;48.216;-1.628;2022-08-07T07:31:03;20.30;99.90
35633;DHT22;21754;48.216;-1.628;2022-08-07T07:33:31;20.40;99.90
35633;DHT22;21754;48.216;-1.628;2022-08-07T07:35:59;20.60;99.90
35633;DHT22;21754;48.216;-1.628;2022-08-07T07:38:26;20.60;99.90
35633;DHT22;21754;48.216;-1.628;2022-08-07T07:40:56;20.70;99.90
35633;DHT22;21754;48.216;-1.628;2022-08-07T07:43:25;20.80;99.90
35633;DHT22;21754;48.216;-1.628;2022-08-07T07:45:51;20.90;99.90
35633;DHT22;21754;48.216;-1.628;2022-08-07T07:48:21;21.00;99.90
35633;DHT22;21754;48.216;-1.628;2022-08-07T07:50:50;21.10;99.90
35633;DHT22;21754;48.216;-1.628;2022-08-07T07:53:18;21.20;99.90
35633;DHT22;21754;48.216;-1.628;2022-08-07T07:55:45;21.30;99.90
35633;DHT22;21754;48.216;-1.628;2022-08-07T07:58:11;21.30;99.90
35633;DHT22;21754;48.216;-1.628;2022-08-07T08:00:38;21.40;99.90
35633;DHT22;21754;48.216;-1.628;2022-08-07T08:12:58;21.50;99.90
35633;DHT22;21754;48.216;-1.628;2022-08-07T08:15:26;22.10;99.90
35633;DHT22;21754;48.216;-1.628;2022-08-07T08:17:53;22.20;99.90
35633;DHT22;21754;48.216;-1.628;2022-08-07T08:20:21;22.30;99.90
35633;DHT22;21754;48.216;-1.628;2022-08-07T08:22:48;22.40;99.90
35633;DHT22;21754;48.216;-1.628;2022-08-07T08:25:35;22.50;99.90
35633;DHT22;21754;48.216;-1.628;2022-08-07T08:28:23;22.60;99.00
35633;DHT22;21754;48.216;-1.628;2022-08-07T08:30:53;22.70;98.10
35633;DHT22;21754;48.216;-1.628;2022-08-07T08:33:21;22.80;97.50
35633;DHT22;21754;48.216;-1.628;2022-08-07T08:35:50;23.00;96.60
35633;DHT22;21754;48.216;-1.628;2022-08-07T08:38:22;23.10;95.20
35633;DHT22;21754;48.216;-1.628;2022-08-07T08:41:03;23.10;95.10
35633;DHT22;21754;48.216;-1.628;2022-08-07T08:46:04;23.30;92.70
35633;DHT22;21754;48.216;-1.628;2022-08-07T08:48:42;23.30;92.30
35633;DHT22;21754;48.216;-1.628;2022-08-07T08:51:18;23.50;91.80
35633;DHT22;21754;48.216;-1.628;2022-08-07T08:56:26;23.70;92.50
35633;DHT22;21754;48.216;-1.628;2022-08-07T08:59:08;23.70;91.50
35633;DHT22;21754;48.216;-1.628;2022-08-07T09:04:35;24.00;90.80
35633;DHT22;21754;48.216;-1.628;2022-08-07T09:26:10;24.60;83.30
35633;DHT22;21754;48.216;-1.628;2022-08-07T09:28:40;24.70;84.60
35633;DHT22;21754;48.216;-1.628;2022-08-07T09:34:17;24.80;82.80
35633;DHT22;21754;48.216;-1.628;2022-08-07T09:42:54;24.90;81.70
35633;DHT22;21754;48.216;-1.628;2022-08-07T09:45:59;25.00;78.40
35633;DHT22;21754;48.216;-1.628;2022-08-07T09:51:20;25.30;77.40
35633;DHT22;21754;48.216;-1.628;2022-08-07T09:53:54;25.40;75.20
35633;DHT22;21754;48.216;-1.628;2022-08-07T09:59:21;25.50;77.60
35633;DHT22;21754;48.216;-1.628;2022-08-07T10:07:42;25.70;73.90
35633;DHT22;21754;48.216;-1.628;2022-08-07T10:18:58;26.00;70.60
35633;DHT22;21754;48.216;-1.628;2022-08-07T10:44:17;26.60;61.90
35633;DHT22;21754;48.216;-1.628;2022-08-07T10:47:08;26.70;60.40
35633;DHT22;21754;48.216;-1.628;2022-08-07T10:49:43;26.70;64.20
35633;DHT22;21754;48.216;-1.628;2022-08-07T10:52:20;26.90;62.50
35633;DHT22;21754;48.216;-1.628;2022-08-07T11:05:48;27.10;62.00
35633;DHT22;21754;48.216;-1.628;2022-08-07T11:08:37;27.40;61.70
35633;DHT22;21754;48.216;-1.628;2022-08-07T11:11:57;27.30;59.70
35633;DHT22;21754;48.216;-1.628;2022-08-07T11:14:25;27.50;59.80
35633;DHT22;21754;48.216;-1.628;2022-08-07T11:17:16;27.60;57.20
35633;DHT22;21754;48.216;-1.628;2022-08-07T11:19:54;27.60;58.60
35633;DHT22;21754;48.216;-1.628;2022-08-07T11:40:03;28.10;56.00
35633;DHT22;21754;48.216;-1.628;2022-08-07T12:07:54;28.30;52.50
35633;DHT22;21754;48.216;-1.628;2022-08-07T12:10:34;28.50;54.40
35633;DHT22;21754;48.216;-1.628;2022-08-07T12:13:15;28.80;53.90
35633;DHT22;21754;48.216;-1.628;2022-08-07T12:16:14;28.90;52.10
35633;DHT22;21754;48.216;-1.628;2022-08-07T12:18:50;28.90;52.20
35633;DHT22;21754;48.216;-1.628;2022-08-07T12:22:01;29.00;53.00
35633;DHT22;21754;48.216;-1.628;2022-08-07T12:27:38;28.80;49.70
35633;DHT22;21754;48.216;-1.628;2022-08-07T12:30:06;28.80;50.80
35633;DHT22;21754;48.216;-1.628;2022-08-07T12:32:49;29.00;49.20
35633;DHT22;21754;48.216;-1.628;2022-08-07T12:35:17;29.20;47.30
35633;DHT22;21754;48.216;-1.628;2022-08-07T12:37:47;29.20;47.50
35633;DHT22;21754;48.216;-1.628;2022-08-07T12:40:21;29.30;48.90
35633;DHT22;21754;48.216;-1.628;2022-08-07T12:42:51;29.40;48.10
35633;DHT22;21754;48.216;-1.628;2022-08-07T12:45:25;29.30;45.10
35633;DHT22;21754;48.216;-1.628;2022-08-07T12:48:02;29.00;43.80
35633;DHT22;21754;48.216;-1.628;2022-08-07T12:50:44;29.10;46.90
35633;DHT22;21754;48.216;-1.628;2022-08-07T12:56:11;29.60;46.40
35633;DHT22;21754;48.216;-1.628;2022-08-07T12:58:45;29.70;44.90
35633;DHT22;21754;48.216;-1.628;2022-08-07T13:04:24;29.70;45.60
35633;DHT22;21754;48.216;-1.628;2022-08-07T13:10:03;30.00;44.00
35633;DHT22;21754;48.216;-1.628;2022-08-07T13:23:06;30.20;44.20
35633;DHT22;21754;48.216;-1.628;2022-08-07T13:25:39;30.40;45.50
35633;DHT22;21754;48.216;-1.628;2022-08-07T13:28:18;30.40;44.60
35633;DHT22;21754;48.216;-1.628;2022-08-07T13:30:57;30.50;43.30
35633;DHT22;21754;48.216;-1.628;2022-08-07T13:34:08;30.40;44.40
35633;DHT22;21754;48.216;-1.628;2022-08-07T13:36:48;30.50;44.80
35633;DHT22;21754;48.216;-1.628;2022-08-07T13:39:38;30.60;43.00
35633;DHT22;21754;48.216;-1.628;2022-08-07T13:42:09;30.20;41.70
35633;DHT22;21754;48.216;-1.628;2022-08-07T13:44:39;30.20;45.00
35633;DHT22;21754;48.216;-1.628;2022-08-07T13:47:09;30.40;44.20
35633;DHT22;21754;48.216;-1.628;2022-08-07T13:49:42;30.60;44.80
35633;DHT22;21754;48.216;-1.628;2022-08-07T13:52:09;30.60;43.60
35633;DHT22;21754;48.216;-1.628;2022-08-07T13:54:37;30.70;44.90
35633;DHT22;21754;48.216;-1.628;2022-08-07T13:57:07;30.80;43.30
35633;DHT22;21754;48.216;-1.628;2022-08-07T13:59:43;30.50;42.10
35633;DHT22;21754;48.216;-1.628;2022-08-07T14:02:12;30.50;42.70
35633;DHT22;21754;48.216;-1.628;2022-08-07T14:04:51;30.60;42.00
35633;DHT22;21754;48.216;-1.628;2022-08-07T14:07:25;30.40;41.50
35633;DHT22;21754;48.216;-1.628;2022-08-07T14:09:54;30.50;43.70
35633;DHT22;21754;48.216;-1.628;2022-08-07T14:12:42;30.60;43.20
35633;DHT22;21754;48.216;-1.628;2022-08-07T14:15:52;30.30;42.40
35633;DHT22;21754;48.216;-1.628;2022-08-07T14:18:23;30.50;43.50
35633;DHT22;21754;48.216;-1.628;2022-08-07T14:20:58;30.70;44.00
35633;DHT22;21754;48.216;-1.628;2022-08-07T14:23:28;31.00;44.80
35633;DHT22;21754;48.216;-1.628;2022-08-07T14:28:52;31.40;43.40
35633;DHT22;21754;48.216;-1.628;2022-08-07T14:31:22;31.20;42.00
35633;DHT22;21754;48.216;-1.628;2022-08-07T14:33:52;30.90;41.90
35633;DHT22;21754;48.216;-1.628;2022-08-07T14:36:22;30.80;41.00
35633;DHT22;21754;48.216;-1.628;2022-08-07T14:38:49;30.80;41.90
35633;DHT22;21754;48.216;-1.628;2022-08-07T14:41:25;31.10;42.70
35633;DHT22;21754;48.216;-1.628;2022-08-07T14:43:52;31.30;42.50
35633;DHT22;21754;48.216;-1.628;2022-08-07T14:46:20;31.50;42.20
35633;DHT22;21754;48.216;-1.628;2022-08-07T14:48:46;31.50;40.90
35633;DHT22;21754;48.216;-1.628;2022-08-07T14:51:19;31.40;41.20
35633;DHT22;21754;48.216;-1.628;2022-08-07T14:53:49;31.40;41.10
35633;DHT22;21754;48.216;-1.628;2022-08-07T14:56:19;31.40;41.00
35633;DHT22;21754;48.216;-1.628;2022-08-07T14:58:52;31.40;40.80
35633;DHT22;21754;48.216;-1.628;2022-08-07T15:01:22;31.50;41.10
35633;DHT22;21754;48.216;-1.628;2022-08-07T15:03:50;31.50;41.50
35633;DHT22;21754;48.216;-1.628;2022-08-07T15:06:22;31.60;41.20
35633;DHT22;21754;48.216;-1.628;2022-08-07T15:08:48;31.80;41.40
35633;DHT22;21754;48.216;-1.628;2022-08-07T15:11:21;31.90;40.10
35633;DHT22;21754;48.216;-1.628;2022-08-07T15:13:59;31.80;40.60
35633;DHT22;21754;48.216;-1.628;2022-08-07T15:16:55;31.90;40.40
35633;DHT22;21754;48.216;-1.628;2022-08-07T15:19:21;32.00;40.10
35633;DHT22;21754;48.216;-1.628;2022-08-07T15:21:49;31.70;38.70
35633;DHT22;21754;48.216;-1.628;2022-08-07T15:24:23;31.30;38.40
35633;DHT22;21754;48.216;-1.628;2022-08-07T15:27:13;31.30;39.80
35633;DHT22;21754;48.216;-1.628;2022-08-07T15:29:44;31.40;39.90
35633;DHT22;21754;48.216;-1.628;2022-08-07T15:32:10;31.70;40.50
35633;DHT22;21754;48.216;-1.628;2022-08-07T15:34:48;31.90;40.40
35633;DHT22;21754;48.216;-1.628;2022-08-07T15:37:21;32.10;39.00
35633;DHT22;21754;48.216;-1.628;2022-08-07T15:39:56;32.10;39.50
35633;DHT22;21754;48.216;-1.628;2022-08-07T15:45:30;31.80;38.80
35633;DHT22;21754;48.216;-1.628;2022-08-07T15:48:13;31.90;39.50
35633;DHT22;21754;48.216;-1.628;2022-08-07T15:50:47;32.00;39.40
35633;DHT22;21754;48.216;-1.628;2022-08-07T15:53:23;32.10;39.40
35633;DHT22;21754;48.216;-1.628;2022-08-07T15:55:56;32.10;39.20
35633;DHT22;21754;48.216;-1.628;2022-08-07T15:58:34;32.10;39.50
35633;DHT22;21754;48.216;-1.628;2022-08-07T16:01:02;32.10;37.70
35633;DHT22;21754;48.216;-1.628;2022-08-07T16:03:31;32.20;38.50
35633;DHT22;21754;48.216;-1.628;2022-08-07T16:05:58;32.20;38.70
35633;DHT22;21754;48.216;-1.628;2022-08-07T16:08:25;32.30;38.80
35633;DHT22;21754;48.216;-1.628;2022-08-07T16:11:00;32.20;38.00
35633;DHT22;21754;48.216;-1.628;2022-08-07T16:13:49;32.20;38.40
35633;DHT22;21754;48.216;-1.628;2022-08-07T16:21:19;32.30;37.20
35633;DHT22;21754;48.216;-1.628;2022-08-07T16:24:46;32.20;38.30
35633;DHT22;21754;48.216;-1.628;2022-08-07T16:26:58;32.10;38.50
35633;DHT22;21754;48.216;-1.628;2022-08-07T16:32:47;32.10;38.20
35633;DHT22;21754;48.216;-1.628;2022-08-07T16:35:25;32.10;39.40
35633;DHT22;21754;48.216;-1.628;2022-08-07T16:47:18;32.40;39.50
35633;DHT22;21754;48.216;-1.628;2022-08-07T16:55:37;32.20;39.70
35633;DHT22;21754;48.216;-1.628;2022-08-07T17:14:14;31.50;40.70
35633;DHT22;21754;48.216;-1.628;2022-08-07T17:16:50;31.40;40.50
35633;DHT22;21754;48.216;-1.628;2022-08-07T17:19:25;31.30;41.40
35633;DHT22;21754;48.216;-1.628;2022-08-07T17:22:02;31.40;41.80
35633;DHT22;21754;48.216;-1.628;2022-08-07T17:30:11;30.90;42.40
35633;DHT22;21754;48.216;-1.628;2022-08-07T17:35:19;31.00;42.90
35633;DHT22;21754;48.216;-1.628;2022-08-07T17:38:12;31.10;42.80
35633;DHT22;21754;48.216;-1.628;2022-08-07T17:40:42;31.30;42.80
35633;DHT22;21754;48.216;-1.628;2022-08-07T17:43:16;31.30;42.60
35633;DHT22;21754;48.216;-1.628;2022-08-07T17:45:57;31.20;42.80
35633;DHT22;21754;48.216;-1.628;2022-08-07T17:48:30;31.10;42.30
35633;DHT22;21754;48.216;-1.628;2022-08-07T17:51:22;31.00;42.30
35633;DHT22;21754;48.216;-1.628;2022-08-07T17:54:02;30.90;42.20
35633;DHT22;21754;48.216;-1.628;2022-08-07T17:56:34;30.80;42.40
35633;DHT22;21754;48.216;-1.628;2022-08-07T17:59:09;30.70;42.90
35633;DHT22;21754;48.216;-1.628;2022-08-07T18:01:54;30.70;43.10
35633;DHT22;21754;48.216;-1.628;2022-08-07T18:04:50;30.60;43.20
35633;DHT22;21754;48.216;-1.628;2022-08-07T18:07:27;30.40;42.70
35633;DHT22;21754;48.216;-1.628;2022-08-07T18:09:59;30.20;43.50
35633;DHT22;21754;48.216;-1.628;2022-08-07T18:15:33;29.90;43.70
35633;DHT22;21754;48.216;-1.628;2022-08-07T18:18:08;29.80;44.40
35633;DHT22;21754;48.216;-1.628;2022-08-07T18:20:56;29.70;44.50
35633;DHT22;21754;48.216;-1.628;2022-08-07T18:23:56;29.60;44.80
35633;DHT22;21754;48.216;-1.628;2022-08-07T18:30:06;29.50;45.30
35633;DHT22;21754;48.216;-1.628;2022-08-07T18:46:17;28.70;47.00
35633;DHT22;21754;48.216;-1.628;2022-08-07T18:54:32;28.40;48.60
35633;DHT22;21754;48.216;-1.628;2022-08-07T18:57:18;28.30;48.80
35633;DHT22;21754;48.216;-1.628;2022-08-07T19:00:04;28.10;49.70
35633;DHT22;21754;48.216;-1.628;2022-08-07T19:02:52;28.00;49.60
35633;DHT22;21754;48.216;-1.628;2022-08-07T19:08:11;27.70;50.30
35633;DHT22;21754;48.216;-1.628;2022-08-07T19:11:09;27.60;50.60
35633;DHT22;21754;48.216;-1.628;2022-08-07T19:22:07;27.20;51.90
35633;DHT22;21754;48.216;-1.628;2022-08-07T19:24:43;27.10;52.10
35633;DHT22;21754;48.216;-1.628;2022-08-07T19:27:17;26.90;52.90
35633;DHT22;21754;48.216;-1.628;2022-08-07T19:29:46;26.70;53.20
35633;DHT22;21754;48.216;-1.628;2022-08-07T19:32:15;26.60;53.60
35633;DHT22;21754;48.216;-1.628;2022-08-07T19:35:02;26.60;53.90
35633;DHT22;21754;48.216;-1.628;2022-08-07T19:37:29;26.50;54.60
35633;DHT22;21754;48.216;-1.628;2022-08-07T19:39:58;26.40;54.80
35633;DHT22;21754;48.216;-1.628;2022-08-07T19:42:27;26.30;55.40
35633;DHT22;21754;48.216;-1.628;2022-08-07T19:44:53;26.20;55.30
35633;DHT22;21754;48.216;-1.628;2022-08-07T19:47:20;26.10;55.40
35633;DHT22;21754;48.216;-1.628;2022-08-07T19:49:49;26.00;55.80
35633;DHT22;21754;48.216;-1.628;2022-08-07T19:52:20;25.90;55.90
35633;DHT22;21754;48.216;-1.628;2022-08-07T19:54:48;25.70;56.10
35633;DHT22;21754;48.216;-1.628;2022-08-07T19:57:18;25.60;56.50
35633;DHT22;21754;48.216;-1.628;2022-08-07T19:59:48;25.50;56.90
35633;DHT22;21754;48.216;-1.628;2022-08-07T20:02:26;25.40;56.80
35633;DHT22;21754;48.216;-1.628;2022-08-07T20:04:53;25.30;56.60
35633;DHT22;21754;48.216;-1.628;2022-08-07T20:07:24;25.20;56.50
35633;DHT22;21754;48.216;-1.628;2022-08-07T20:09:56;25.00;56.60